sensor_id;sensor_type;location;lat;lon;timestamp;P1;durP1;ratioP1;P2;durP2;ratioP2
31910;SDS011;18457;52.432;16.914;2022-10-22T00:00:22;39.80;;;25.20;;
31910;SDS011;18457;52.432;16.914;2022-10-22T00:03:14;40.90;;;25.90;;
31910;SDS011;18457;52.432;16.914;2022-10-22T00:05:46;38.40;;;24.90;;
31910;SDS011;18457;52.432;16.914;2022-10-22T00:08:17;42.70;;;28.00;;
31910;SDS011;18457;52.432;16.914;2022-10-22T00:10:49;41.60;;;24.90;;
31910;SDS011;18457;52.432;16.914;2022-10-22T00:13:22;42.50;;;27.00;;
31910;SDS011;18457;52.432;16.914;2022-10-22T00:15:54;46.20;;;25.90;;
31910;SDS011;18457;52.432;16.914;2022-10-22T00:18:26;45.50;;;27.70;;
31910;SDS011;18457;52.432;16.914;2022-10-22T00:20:58;47.30;;;28.60;;
31910;SDS011;18457;52.432;16.914;2022-10-22T00:23:30;48.60;;;27.90;;
31910;SDS011;18457;52.432;16.914;2022-10-22T00:26:02;49.40;;;28.60;;
31910;SDS011;18457;52.432;16.914;2022-10-22T00:28:33;50.80;;;29.30;;
31910;SDS011;18457;52.432;16.914;2022-10-22T00:31:05;46.30;;;27.60;;
31910;SDS011;18457;52.432;16.914;2022-10-22T00:33:37;41.10;;;28.00;;
31910;SDS011;18457;52.432;16.914;2022-10-22T00:36:09;47.40;;;28.70;;
31910;SDS011;18457;52.432;16.914;2022-10-22T00:38:40;44.10;;;28.10;;
31910;SDS011;18457;52.432;16.914;2022-10-22T00:41:12;49.30;;;29.80;;
31910;SDS011;18457;52.432;16.914;2022-10-22T00:43:55;40.50;;;26.90;;
31910;SDS011;18457;52.432;16.914;2022-10-22T00:46:28;44.80;;;27.90;;
31910;SDS011;18457;52.432;16.914;2022-10-22T00:49:01;45.40;;;28.10;;
31910;SDS011;18457;52.432;16.914;2022-10-22T00:51:33;48.60;;;29.90;;
31910;SDS011;18457;52.432;16.914;2022-10-22T00:54:06;58.20;;;29.70;;
31910;SDS011;18457;52.432;16.914;2022-10-22T00:56:38;49.80;;;29.60;;
31910;SDS011;18457;52.432;16.914;2022-10-22T00:59:10;53.60;;;29.90;;
31910;SDS011;18457;52.432;16.914;2022-10-22T01:01:45;49.50;;;30.20;;
31910;SDS011;18457;52.432;16.914;2022-10-22T01:06:48;48.50;;;28.50;;
31910;SDS011;18457;52.432;16.914;2022-10-22T01:09:20;53.60;;;31.10;;
31910;SDS011;18457;52.432;16.914;2022-10-22T01:12:02;50.30;;;29.70;;
31910;SDS011;18457;52.432;16.914;2022-10-22T01:14:43;51.00;;;30.00;;
31910;SDS011;18457;52.432;16.914;2022-10-22T01:17:22;47.40;;;30.30;;
31910;SDS011;18457;52.432;16.914;2022-10-22T01:20:03;47.30;;;29.80;;
31910;SDS011;18457;52.432;16.914;2022-10-22T01:22:50;48.10;;;29.20;;
31910;SDS011;18457;52.432;16.914;2022-10-22T01:28:07;44.80;;;27.80;;
31910;SDS011;18457;52.432;16.914;2022-10-22T01:30:47;43.10;;;27.90;;
31910;SDS011;18457;52.432;16.914;2022-10-22T01:33:22;49.00;;;30.10;;
31910;SDS011;18457;52.432;16.914;2022-10-22T01:35:55;42.70;;;28.10;;
31910;SDS011;18457;52.432;16.914;2022-10-22T01:38:28;42.80;;;26.80;;
31910;SDS011;18457;52.432;16.914;2022-10-22T01:43:31;46.40;;;27.90;;
31910;SDS011;18457;52.432;16.914;2022-10-22T01:46:04;46.70;;;28.70;;
31910;SDS011;18457;52.432;16.914;2022-10-22T01:48:42;46.30;;;27.00;;
31910;SDS011;18457;52.432;16.914;2022-10-22T01:51:26;46.60;;;27.10;;
31910;SDS011;18457;52.432;16.914;2022-10-22T01:54:08;48.00;;;27.70;;
31910;SDS011;18457;52.432;16.914;2022-10-22T01:56:53;45.50;;;30.30;;
31910;SDS011;18457;52.432;16.914;2022-10-22T01:59:35;43.60;;;27.60;;
31910;SDS011;18457;52.432;16.914;2022-10-22T02:02:22;45.40;;;28.30;;
31910;SDS011;18457;52.432;16.914;2022-10-22T02:05:04;50.30;;;29.40;;
31910;SDS011;18457;52.432;16.914;2022-10-22T02:07:41;47.60;;;29.10;;
31910;SDS011;18457;52.432;16.914;2022-10-22T02:10:16;44.70;;;29.60;;
31910;SDS011;18457;52.432;16.914;2022-10-22T02:12:49;45.60;;;28.20;;
31910;SDS011;18457;52.432;16.914;2022-10-22T02:15:24;54.80;;;30.70;;
31910;SDS011;18457;52.432;16.914;2022-10-22T02:17:58;51.60;;;30.00;;
31910;SDS011;18457;52.432;16.914;2022-10-22T02:20:32;43.30;;;28.00;;
31910;SDS011;18457;52.432;16.914;2022-10-22T02:23:07;45.80;;;29.40;;
31910;SDS011;18457;52.432;16.914;2022-10-22T02:25:41;49.30;;;26.70;;
31910;SDS011;18457;52.432;16.914;2022-10-22T02:28:19;45.60;;;28.00;;
31910;SDS011;18457;52.432;16.914;2022-10-22T02:30:58;48.70;;;28.60;;
31910;SDS011;18457;52.432;16.914;2022-10-22T02:33:35;43.30;;;29.10;;
31910;SDS011;18457;52.432;16.914;2022-10-22T02:36:11;45.90;;;28.10;;
31910;SDS011;18457;52.432;16.914;2022-10-22T02:38:44;45.20;;;28.90;;
31910;SDS011;18457;52.432;16.914;2022-10-22T02:41:18;47.50;;;29.20;;
31910;SDS011;18457;52.432;16.914;2022-10-22T02:43:52;49.00;;;30.40;;
31910;SDS011;18457;52.432;16.914;2022-10-22T02:46:24;52.10;;;30.20;;
31910;SDS011;18457;52.432;16.914;2022-10-22T02:48:56;51.30;;;30.10;;
31910;SDS011;18457;52.432;16.914;2022-10-22T02:51:27;55.80;;;30.70;;
31910;SDS011;18457;52.432;16.914;2022-10-22T02:53:59;58.10;;;31.00;;
31910;SDS011;18457;52.432;16.914;2022-10-22T02:56:31;52.10;;;30.70;;
31910;SDS011;18457;52.432;16.914;2022-10-22T02:59:03;52.80;;;30.00;;
31910;SDS011;18457;52.432;16.914;2022-10-22T03:01:35;56.00;;;32.90;;
31910;SDS011;18457;52.432;16.914;2022-10-22T03:04:06;55.10;;;30.80;;
31910;SDS011;18457;52.432;16.914;2022-10-22T03:06:38;57.20;;;31.50;;
31910;SDS011;18457;52.432;16.914;2022-10-22T03:09:11;55.00;;;31.00;;
31910;SDS011;18457;52.432;16.914;2022-10-22T03:11:47;65.80;;;34.20;;
31910;SDS011;18457;52.432;16.914;2022-10-22T03:14:19;66.40;;;33.80;;
31910;SDS011;18457;52.432;16.914;2022-10-22T03:16:51;63.00;;;34.50;;
31910;SDS011;18457;52.432;16.914;2022-10-22T03:19:23;60.90;;;32.20;;
31910;SDS011;18457;52.432;16.914;2022-10-22T03:21:55;71.00;;;33.60;;
31910;SDS011;18457;52.432;16.914;2022-10-22T03:24:30;66.70;;;35.50;;
31910;SDS011;18457;52.432;16.914;2022-10-22T03:27:06;70.20;;;34.60;;
31910;SDS011;18457;52.432;16.914;2022-10-22T03:29:38;65.40;;;33.50;;
31910;SDS011;18457;52.432;16.914;2022-10-22T03:32:11;71.40;;;35.20;;
31910;SDS011;18457;52.432;16.914;2022-10-22T03:34:43;88.80;;;38.70;;
31910;SDS011;18457;52.432;16.914;2022-10-22T03:37:15;74.20;;;35.80;;
31910;SDS011;18457;52.432;16.914;2022-10-22T03:39:48;73.10;;;35.90;;
31910;SDS011;18457;52.432;16.914;2022-10-22T03:42:20;68.80;;;35.60;;
31910;SDS011;18457;52.432;16.914;2022-10-22T03:44:52;66.70;;;33.60;;
31910;SDS011;18457;52.432;16.914;2022-10-22T03:47:23;65.40;;;34.20;;
31910;SDS011;18457;52.432;16.914;2022-10-22T03:49:55;68.60;;;36.30;;
31910;SDS011;18457;52.432;16.914;2022-10-22T03:52:27;83.50;;;36.70;;
31910;SDS011;18457;52.432;16.914;2022-10-22T03:55:05;73.50;;;38.80;;
31910;SDS011;18457;52.432;16.914;2022-10-22T03:57:38;70.60;;;36.90;;
31910;SDS011;18457;52.432;16.914;2022-10-22T04:00:10;69.00;;;35.80;;
31910;SDS011;18457;52.432;16.914;2022-10-22T04:02:42;75.10;;;36.10;;
31910;SDS011;18457;52.432;16.914;2022-10-22T04:05:14;77.50;;;35.90;;
31910;SDS011;18457;52.432;16.914;2022-10-22T04:07:46;70.00;;;37.20;;
31910;SDS011;18457;52.432;16.914;2022-10-22T04:10:17;74.30;;;36.10;;
31910;SDS011;18457;52.432;16.914;2022-10-22T04:12:50;67.20;;;37.90;;
31910;SDS011;18457;52.432;16.914;2022-10-22T04:15:22;74.90;;;36.00;;
31910;SDS011;18457;52.432;16.914;2022-10-22T04:17:56;69.30;;;32.80;;
31910;SDS011;18457;52.432;16.914;2022-10-22T04:20:27;71.10;;;33.50;;
31910;SDS011;18457;52.432;16.914;2022-10-22T04:22:59;47.10;;;24.60;;
31910;SDS011;18457;52.432;16.914;2022-10-22T04:25:31;69.40;;;35.50;;
31910;SDS011;18457;52.432;16.914;2022-10-22T04:28:04;62.40;;;33.10;;
31910;SDS011;18457;52.432;16.914;2022-10-22T04:30:37;64.30;;;33.40;;
31910;SDS011;18457;52.432;16.914;2022-10-22T04:33:08;65.60;;;34.50;;
31910;SDS011;18457;52.432;16.914;2022-10-22T04:35:40;63.80;;;32.60;;
31910;SDS011;18457;52.432;16.914;2022-10-22T04:38:12;65.60;;;32.10;;
31910;SDS011;18457;52.432;16.914;2022-10-22T04:40:43;59.90;;;31.70;;
31910;SDS011;18457;52.432;16.914;2022-10-22T04:43:15;60.70;;;32.60;;
31910;SDS011;18457;52.432;16.914;2022-10-22T04:45:47;79.30;;;34.70;;
31910;SDS011;18457;52.432;16.914;2022-10-22T04:48:18;74.60;;;33.80;;
31910;SDS011;18457;52.432;16.914;2022-10-22T04:50:50;57.60;;;30.70;;
31910;SDS011;18457;52.432;16.914;2022-10-22T04:53:21;64.70;;;33.80;;
31910;SDS011;18457;52.432;16.914;2022-10-22T04:55:53;84.80;;;35.60;;
31910;SDS011;18457;52.432;16.914;2022-10-22T04:58:35;82.00;;;35.60;;
31910;SDS011;18457;52.432;16.914;2022-10-22T05:01:11;91.80;;;34.30;;
31910;SDS011;18457;52.432;16.914;2022-10-22T05:03:45;79.20;;;36.50;;
31910;SDS011;18457;52.432;16.914;2022-10-22T05:06:17;75.20;;;36.70;;
31910;SDS011;18457;52.432;16.914;2022-10-22T05:08:52;65.60;;;34.80;;
31910;SDS011;18457;52.432;16.914;2022-10-22T05:11:26;74.00;;;35.40;;
31910;SDS011;18457;52.432;16.914;2022-10-22T05:13:59;71.60;;;34.70;;
31910;SDS011;18457;52.432;16.914;2022-10-22T05:16:33;80.90;;;36.40;;
31910;SDS011;18457;52.432;16.914;2022-10-22T05:19:06;104.10;;;40.00;;
31910;SDS011;18457;52.432;16.914;2022-10-22T05:21:40;111.10;;;37.20;;
31910;SDS011;18457;52.432;16.914;2022-10-22T05:24:12;95.00;;;38.00;;
31910;SDS011;18457;52.432;16.914;2022-10-22T05:26:44;112.00;;;41.80;;
31910;SDS011;18457;52.432;16.914;2022-10-22T05:29:17;118.40;;;42.80;;
31910;SDS011;18457;52.432;16.914;2022-10-22T05:31:50;91.20;;;40.90;;
31910;SDS011;18457;52.432;16.914;2022-10-22T05:34:22;83.60;;;38.20;;
31910;SDS011;18457;52.432;16.914;2022-10-22T05:36:54;89.20;;;39.00;;
31910;SDS011;18457;52.432;16.914;2022-10-22T05:39:26;89.60;;;40.20;;
31910;SDS011;18457;52.432;16.914;2022-10-22T05:41:58;87.10;;;40.40;;
31910;SDS011;18457;52.432;16.914;2022-10-22T05:44:29;124.10;;;41.10;;
31910;SDS011;18457;52.432;16.914;2022-10-22T05:47:01;93.80;;;40.70;;
31910;SDS011;18457;52.432;16.914;2022-10-22T05:49:33;101.90;;;39.10;;
31910;SDS011;18457;52.432;16.914;2022-10-22T05:52:05;101.90;;;40.90;;
31910;SDS011;18457;52.432;16.914;2022-10-22T05:54:37;153.00;;;41.50;;
31910;SDS011;18457;52.432;16.914;2022-10-22T05:59:40;89.60;;;36.00;;
31910;SDS011;18457;52.432;16.914;2022-10-22T06:02:12;108.20;;;40.20;;
31910;SDS011;18457;52.432;16.914;2022-10-22T06:04:44;100.40;;;38.90;;
31910;SDS011;18457;52.432;16.914;2022-10-22T06:07:16;134.40;;;43.30;;
31910;SDS011;18457;52.432;16.914;2022-10-22T06:09:48;107.70;;;41.20;;
31910;SDS011;18457;52.432;16.914;2022-10-22T06:12:21;130.80;;;42.20;;
31910;SDS011;18457;52.432;16.914;2022-10-22T06:14:53;101.20;;;39.60;;
31910;SDS011;18457;52.432;16.914;2022-10-22T06:17:25;127.20;;;39.80;;
31910;SDS011;18457;52.432;16.914;2022-10-22T06:19:57;103.40;;;40.00;;
31910;SDS011;18457;52.432;16.914;2022-10-22T06:22:30;102.00;;;37.90;;
31910;SDS011;18457;52.432;16.914;2022-10-22T06:25:02;114.00;;;39.80;;
31910;SDS011;18457;52.432;16.914;2022-10-22T06:27:36;136.10;;;40.60;;
31910;SDS011;18457;52.432;16.914;2022-10-22T06:30:09;105.10;;;40.00;;
31910;SDS011;18457;52.432;16.914;2022-10-22T06:32:42;108.20;;;40.40;;
31910;SDS011;18457;52.432;16.914;2022-10-22T06:35:14;108.10;;;43.40;;
31910;SDS011;18457;52.432;16.914;2022-10-22T06:37:46;67.70;;;25.10;;
31910;SDS011;18457;52.432;16.914;2022-10-22T06:40:18;109.50;;;41.20;;
31910;SDS011;18457;52.432;16.914;2022-10-22T06:42:50;111.20;;;40.20;;
31910;SDS011;18457;52.432;16.914;2022-10-22T06:45:22;112.30;;;41.50;;
31910;SDS011;18457;52.432;16.914;2022-10-22T06:47:54;119.10;;;43.40;;
31910;SDS011;18457;52.432;16.914;2022-10-22T06:50:26;112.30;;;43.30;;
31910;SDS011;18457;52.432;16.914;2022-10-22T06:52:57;150.60;;;45.10;;
31910;SDS011;18457;52.432;16.914;2022-10-22T06:55:29;126.50;;;42.80;;
31910;SDS011;18457;52.432;16.914;2022-10-22T06:58:01;88.00;;;31.70;;
31910;SDS011;18457;52.432;16.914;2022-10-22T07:00:34;147.90;;;42.50;;
31910;SDS011;18457;52.432;16.914;2022-10-22T07:03:06;84.90;;;28.60;;
31910;SDS011;18457;52.432;16.914;2022-10-22T07:05:41;130.90;;;41.00;;
31910;SDS011;18457;52.432;16.914;2022-10-22T07:08:13;121.40;;;42.40;;
31910;SDS011;18457;52.432;16.914;2022-10-22T07:10:45;123.50;;;42.10;;
31910;SDS011;18457;52.432;16.914;2022-10-22T07:13:17;133.50;;;43.90;;
31910;SDS011;18457;52.432;16.914;2022-10-22T07:15:52;160.60;;;44.80;;
31910;SDS011;18457;52.432;16.914;2022-10-22T07:18:24;146.20;;;46.30;;
31910;SDS011;18457;52.432;16.914;2022-10-22T07:20:56;136.70;;;44.70;;
31910;SDS011;18457;52.432;16.914;2022-10-22T07:23:29;131.60;;;44.10;;
31910;SDS011;18457;52.432;16.914;2022-10-22T07:28:31;116.90;;;41.40;;
31910;SDS011;18457;52.432;16.914;2022-10-22T07:31:06;118.60;;;40.00;;
31910;SDS011;18457;52.432;16.914;2022-10-22T07:33:39;109.00;;;39.10;;
31910;SDS011;18457;52.432;16.914;2022-10-22T07:36:12;99.60;;;39.40;;
31910;SDS011;18457;52.432;16.914;2022-10-22T07:38:46;106.90;;;39.80;;
31910;SDS011;18457;52.432;16.914;2022-10-22T07:41:23;95.30;;;38.20;;
31910;SDS011;18457;52.432;16.914;2022-10-22T07:43:57;112.10;;;42.70;;
31910;SDS011;18457;52.432;16.914;2022-10-22T07:46:29;106.10;;;40.80;;
31910;SDS011;18457;52.432;16.914;2022-10-22T07:49:03;98.20;;;37.60;;
31910;SDS011;18457;52.432;16.914;2022-10-22T07:51:35;103.80;;;38.40;;
31910;SDS011;18457;52.432;16.914;2022-10-22T07:54:07;119.00;;;41.40;;
31910;SDS011;18457;52.432;16.914;2022-10-22T07:56:38;59.70;;;21.60;;
31910;SDS011;18457;52.432;16.914;2022-10-22T07:59:10;112.10;;;42.10;;
31910;SDS011;18457;52.432;16.914;2022-10-22T08:01:42;111.50;;;41.70;;
31910;SDS011;18457;52.432;16.914;2022-10-22T08:04:16;113.60;;;39.60;;
31910;SDS011;18457;52.432;16.914;2022-10-22T08:06:48;112.80;;;37.80;;
31910;SDS011;18457;52.432;16.914;2022-10-22T08:09:20;115.30;;;41.50;;
31910;SDS011;18457;52.432;16.914;2022-10-22T08:11:51;131.70;;;40.50;;
31910;SDS011;18457;52.432;16.914;2022-10-22T08:14:23;108.10;;;38.80;;
31910;SDS011;18457;52.432;16.914;2022-10-22T08:16:55;110.70;;;41.60;;
31910;SDS011;18457;52.432;16.914;2022-10-22T08:19:27;78.20;;;29.60;;
31910;SDS011;18457;52.432;16.914;2022-10-22T08:22:00;109.10;;;40.50;;
31910;SDS011;18457;52.432;16.914;2022-10-22T08:24:33;102.00;;;41.80;;
31910;SDS011;18457;52.432;16.914;2022-10-22T08:27:05;96.50;;;39.40;;
31910;SDS011;18457;52.432;16.914;2022-10-22T08:29:37;71.10;;;29.70;;
31910;SDS011;18457;52.432;16.914;2022-10-22T08:32:09;110.20;;;42.40;;
31910;SDS011;18457;52.432;16.914;2022-10-22T08:34:42;97.60;;;42.00;;
31910;SDS011;18457;52.432;16.914;2022-10-22T08:37:13;107.50;;;42.00;;
31910;SDS011;18457;52.432;16.914;2022-10-22T08:39:45;96.50;;;38.30;;
31910;SDS011;18457;52.432;16.914;2022-10-22T08:42:24;90.90;;;39.80;;
31910;SDS011;18457;52.432;16.914;2022-10-22T08:45:10;89.20;;;41.20;;
31910;SDS011;18457;52.432;16.914;2022-10-22T08:47:58;93.90;;;42.20;;
31910;SDS011;18457;52.432;16.914;2022-10-22T08:50:46;88.40;;;40.70;;
31910;SDS011;18457;52.432;16.914;2022-10-22T08:53:20;92.60;;;40.00;;
31910;SDS011;18457;52.432;16.914;2022-10-22T08:55:56;97.60;;;43.40;;
31910;SDS011;18457;52.432;16.914;2022-10-22T08:58:31;97.40;;;40.20;;
31910;SDS011;18457;52.432;16.914;2022-10-22T09:01:11;84.90;;;39.70;;
31910;SDS011;18457;52.432;16.914;2022-10-22T09:03:47;96.90;;;41.50;;
31910;SDS011;18457;52.432;16.914;2022-10-22T09:06:24;86.50;;;40.10;;
31910;SDS011;18457;52.432;16.914;2022-10-22T09:08:57;88.60;;;38.30;;
31910;SDS011;18457;52.432;16.914;2022-10-22T09:11:32;77.10;;;38.00;;
31910;SDS011;18457;52.432;16.914;2022-10-22T09:14:05;83.90;;;38.50;;
31910;SDS011;18457;52.432;16.914;2022-10-22T09:16:51;74.30;;;37.70;;
31910;SDS011;18457;52.432;16.914;2022-10-22T09:19:43;69.60;;;38.00;;
31910;SDS011;18457;52.432;16.914;2022-10-22T09:22:30;78.70;;;36.80;;
31910;SDS011;18457;52.432;16.914;2022-10-22T09:25:13;76.60;;;35.60;;
31910;SDS011;18457;52.432;16.914;2022-10-22T09:27:49;76.20;;;36.00;;
31910;SDS011;18457;52.432;16.914;2022-10-22T09:30:27;80.20;;;38.00;;
31910;SDS011;18457;52.432;16.914;2022-10-22T09:33:09;77.80;;;38.70;;
31910;SDS011;18457;52.432;16.914;2022-10-22T09:35:46;83.10;;;38.20;;
31910;SDS011;18457;52.432;16.914;2022-10-22T09:38:22;75.20;;;36.60;;
31910;SDS011;18457;52.432;16.914;2022-10-22T09:40:57;80.70;;;38.30;;
31910;SDS011;18457;52.432;16.914;2022-10-22T09:43:32;80.30;;;38.10;;
31910;SDS011;18457;52.432;16.914;2022-10-22T09:46:06;77.70;;;38.60;;
31910;SDS011;18457;52.432;16.914;2022-10-22T09:48:46;67.20;;;34.50;;
31910;SDS011;18457;52.432;16.914;2022-10-22T09:51:21;58.70;;;35.90;;
31910;SDS011;18457;52.432;16.914;2022-10-22T09:53:58;60.10;;;34.40;;
31910;SDS011;18457;52.432;16.914;2022-10-22T09:56:33;65.30;;;36.00;;
31910;SDS011;18457;52.432;16.914;2022-10-22T09:59:13;63.70;;;34.20;;
31910;SDS011;18457;52.432;16.914;2022-10-22T10:01:45;63.60;;;35.90;;
31910;SDS011;18457;52.432;16.914;2022-10-22T10:04:43;70.10;;;37.80;;
31910;SDS011;18457;52.432;16.914;2022-10-22T10:07:18;69.70;;;35.80;;
31910;SDS011;18457;52.432;16.914;2022-10-22T10:09:51;64.90;;;35.50;;
31910;SDS011;18457;52.432;16.914;2022-10-22T10:12:29;65.20;;;36.10;;
31910;SDS011;18457;52.432;16.914;2022-10-22T10:17:46;62.90;;;33.80;;
31910;SDS011;18457;52.432;16.914;2022-10-22T10:20:28;65.30;;;35.60;;
31910;SDS011;18457;52.432;16.914;2022-10-22T10:23:11;63.60;;;35.00;;
31910;SDS011;18457;52.432;16.914;2022-10-22T10:25:54;69.60;;;35.40;;
31910;SDS011;18457;52.432;16.914;2022-10-22T10:28:43;64.20;;;37.00;;
31910;SDS011;18457;52.432;16.914;2022-10-22T10:31:26;65.70;;;36.30;;
31910;SDS011;18457;52.432;16.914;2022-10-22T10:34:11;62.20;;;35.70;;
31910;SDS011;18457;52.432;16.914;2022-10-22T10:36:55;59.30;;;34.00;;
31910;SDS011;18457;52.432;16.914;2022-10-22T10:39:36;61.50;;;33.90;;
31910;SDS011;18457;52.432;16.914;2022-10-22T10:42:20;57.50;;;31.90;;
31910;SDS011;18457;52.432;16.914;2022-10-22T10:44:59;60.70;;;32.30;;
31910;SDS011;18457;52.432;16.914;2022-10-22T10:47:54;57.90;;;32.40;;
31910;SDS011;18457;52.432;16.914;2022-10-22T10:50:38;60.90;;;33.90;;
31910;SDS011;18457;52.432;16.914;2022-10-22T10:55:58;52.40;;;29.50;;
31910;SDS011;18457;52.432;16.914;2022-10-22T10:58:40;59.40;;;31.00;;
31910;SDS011;18457;52.432;16.914;2022-10-22T11:01:19;60.80;;;32.60;;
31910;SDS011;18457;52.432;16.914;2022-10-22T11:04:01;56.60;;;30.70;;
31910;SDS011;18457;52.432;16.914;2022-10-22T11:06:43;53.20;;;29.50;;
31910;SDS011;18457;52.432;16.914;2022-10-22T11:09:17;53.40;;;31.50;;
31910;SDS011;18457;52.432;16.914;2022-10-22T11:11:54;55.90;;;31.40;;
31910;SDS011;18457;52.432;16.914;2022-10-22T11:14:31;54.10;;;29.90;;
31910;SDS011;18457;52.432;16.914;2022-10-22T11:17:10;51.90;;;31.20;;
31910;SDS011;18457;52.432;16.914;2022-10-22T11:19:47;58.50;;;32.30;;
31910;SDS011;18457;52.432;16.914;2022-10-22T11:22:29;57.40;;;30.90;;
31910;SDS011;18457;52.432;16.914;2022-10-22T11:25:13;55.70;;;29.90;;
31910;SDS011;18457;52.432;16.914;2022-10-22T11:27:48;50.30;;;29.50;;
31910;SDS011;18457;52.432;16.914;2022-10-22T11:30:29;50.10;;;29.70;;
31910;SDS011;18457;52.432;16.914;2022-10-22T11:33:04;53.70;;;31.00;;
31910;SDS011;18457;52.432;16.914;2022-10-22T11:35:41;53.40;;;31.10;;
31910;SDS011;18457;52.432;16.914;2022-10-22T11:38:16;53.40;;;31.10;;
31910;SDS011;18457;52.432;16.914;2022-10-22T11:40:53;62.50;;;33.60;;
31910;SDS011;18457;52.432;16.914;2022-10-22T11:43:30;61.20;;;32.90;;
31910;SDS011;18457;52.432;16.914;2022-10-22T11:46:23;60.40;;;33.70;;
31910;SDS011;18457;52.432;16.914;2022-10-22T11:49:02;60.90;;;33.70;;
31910;SDS011;18457;52.432;16.914;2022-10-22T11:51:45;61.40;;;35.30;;
31910;SDS011;18457;52.432;16.914;2022-10-22T11:54:28;64.10;;;35.60;;
31910;SDS011;18457;52.432;16.914;2022-10-22T11:57:18;64.50;;;35.20;;
31910;SDS011;18457;52.432;16.914;2022-10-22T11:59:56;62.60;;;36.90;;
31910;SDS011;18457;52.432;16.914;2022-10-22T12:02:43;62.70;;;34.90;;
31910;SDS011;18457;52.432;16.914;2022-10-22T12:11:06;63.00;;;35.00;;
31910;SDS011;18457;52.432;16.914;2022-10-22T12:13:54;59.10;;;34.40;;
31910;SDS011;18457;52.432;16.914;2022-10-22T12:16:44;56.30;;;33.30;;
31910;SDS011;18457;52.432;16.914;2022-10-22T12:19:30;58.50;;;35.50;;
31910;SDS011;18457;52.432;16.914;2022-10-22T12:22:12;54.70;;;33.40;;
31910;SDS011;18457;52.432;16.914;2022-10-22T12:24:47;53.20;;;32.60;;
31910;SDS011;18457;52.432;16.914;2022-10-22T12:27:22;56.40;;;34.40;;
31910;SDS011;18457;52.432;16.914;2022-10-22T12:29:56;51.70;;;33.40;;
31910;SDS011;18457;52.432;16.914;2022-10-22T12:32:33;56.50;;;33.70;;
31910;SDS011;18457;52.432;16.914;2022-10-22T12:35:06;54.80;;;32.50;;
31910;SDS011;18457;52.432;16.914;2022-10-22T12:37:44;50.80;;;32.40;;
31910;SDS011;18457;52.432;16.914;2022-10-22T12:40:22;58.00;;;32.10;;
31910;SDS011;18457;52.432;16.914;2022-10-22T12:42:56;50.40;;;30.70;;
31910;SDS011;18457;52.432;16.914;2022-10-22T12:45:30;50.20;;;30.30;;
31910;SDS011;18457;52.432;16.914;2022-10-22T12:48:04;48.30;;;30.30;;
31910;SDS011;18457;52.432;16.914;2022-10-22T12:50:44;44.00;;;27.60;;
31910;SDS011;18457;52.432;16.914;2022-10-22T12:53:18;40.20;;;26.10;;
31910;SDS011;18457;52.432;16.914;2022-10-22T12:55:55;37.50;;;25.70;;
31910;SDS011;18457;52.432;16.914;2022-10-22T12:58:33;39.70;;;26.20;;
31910;SDS011;18457;52.432;16.914;2022-10-22T13:01:09;42.50;;;25.30;;
31910;SDS011;18457;52.432;16.914;2022-10-22T13:03:44;37.60;;;23.70;;
31910;SDS011;18457;52.432;16.914;2022-10-22T13:06:23;38.80;;;25.30;;
31910;SDS011;18457;52.432;16.914;2022-10-22T13:09:06;38.90;;;25.50;;
31910;SDS011;18457;52.432;16.914;2022-10-22T13:11:49;40.60;;;25.60;;
31910;SDS011;18457;52.432;16.914;2022-10-22T13:14:26;39.30;;;26.10;;
31910;SDS011;18457;52.432;16.914;2022-10-22T13:17:06;48.70;;;25.90;;
31910;SDS011;18457;52.432;16.914;2022-10-22T13:19:41;36.80;;;25.30;;
31910;SDS011;18457;52.432;16.914;2022-10-22T13:22:28;44.30;;;25.40;;
31910;SDS011;18457;52.432;16.914;2022-10-22T13:25:18;37.70;;;24.90;;
31910;SDS011;18457;52.432;16.914;2022-10-22T13:27:54;37.40;;;25.40;;
31910;SDS011;18457;52.432;16.914;2022-10-22T13:30:27;41.80;;;25.60;;
31910;SDS011;18457;52.432;16.914;2022-10-22T13:33:01;38.70;;;25.50;;
31910;SDS011;18457;52.432;16.914;2022-10-22T13:35:35;43.50;;;27.10;;
31910;SDS011;18457;52.432;16.914;2022-10-22T13:38:10;42.60;;;27.40;;
31910;SDS011;18457;52.432;16.914;2022-10-22T13:40:50;41.90;;;25.90;;
31910;SDS011;18457;52.432;16.914;2022-10-22T13:43:22;42.80;;;26.40;;
31910;SDS011;18457;52.432;16.914;2022-10-22T13:45:54;39.30;;;26.20;;
31910;SDS011;18457;52.432;16.914;2022-10-22T13:48:28;41.20;;;27.60;;
31910;SDS011;18457;52.432;16.914;2022-10-22T13:53:31;48.50;;;27.60;;
31910;SDS011;18457;52.432;16.914;2022-10-22T13:56:04;46.70;;;29.40;;
31910;SDS011;18457;52.432;16.914;2022-10-22T13:58:39;51.40;;;30.70;;
31910;SDS011;18457;52.432;16.914;2022-10-22T14:01:15;53.20;;;31.10;;
31910;SDS011;18457;52.432;16.914;2022-10-22T14:03:51;48.70;;;29.40;;
31910;SDS011;18457;52.432;16.914;2022-10-22T14:06:26;51.20;;;29.60;;
31910;SDS011;18457;52.432;16.914;2022-10-22T14:09:04;51.80;;;31.10;;
31910;SDS011;18457;52.432;16.914;2022-10-22T14:11:41;55.30;;;31.20;;
31910;SDS011;18457;52.432;16.914;2022-10-22T14:14:12;53.20;;;31.50;;
31910;SDS011;18457;52.432;16.914;2022-10-22T14:16:45;51.90;;;30.70;;
31910;SDS011;18457;52.432;16.914;2022-10-22T14:19:17;60.00;;;34.10;;
31910;SDS011;18457;52.432;16.914;2022-10-22T14:21:48;56.60;;;32.50;;
31910;SDS011;18457;52.432;16.914;2022-10-22T14:24:20;62.60;;;35.30;;
31910;SDS011;18457;52.432;16.914;2022-10-22T14:26:52;64.50;;;35.60;;
31910;SDS011;18457;52.432;16.914;2022-10-22T14:29:24;66.80;;;33.30;;
31910;SDS011;18457;52.432;16.914;2022-10-22T14:31:56;63.30;;;35.40;;
31910;SDS011;18457;52.432;16.914;2022-10-22T14:34:27;66.00;;;36.30;;
31910;SDS011;18457;52.432;16.914;2022-10-22T14:36:59;68.20;;;36.50;;
31910;SDS011;18457;52.432;16.914;2022-10-22T14:39:31;73.40;;;38.80;;
31910;SDS011;18457;52.432;16.914;2022-10-22T14:42:03;68.20;;;37.50;;
31910;SDS011;18457;52.432;16.914;2022-10-22T14:44:34;70.70;;;37.60;;
31910;SDS011;18457;52.432;16.914;2022-10-22T14:47:06;68.70;;;37.60;;
31910;SDS011;18457;52.432;16.914;2022-10-22T14:49:38;74.60;;;39.10;;
31910;SDS011;18457;52.432;16.914;2022-10-22T14:52:09;69.20;;;39.20;;
31910;SDS011;18457;52.432;16.914;2022-10-22T14:54:43;74.80;;;38.40;;
31910;SDS011;18457;52.432;16.914;2022-10-22T14:57:16;80.90;;;41.90;;
31910;SDS011;18457;52.432;16.914;2022-10-22T14:59:48;73.10;;;38.30;;
31910;SDS011;18457;52.432;16.914;2022-10-22T15:02:22;69.50;;;38.50;;
31910;SDS011;18457;52.432;16.914;2022-10-22T15:04:55;66.00;;;36.20;;
31910;SDS011;18457;52.432;16.914;2022-10-22T15:07:28;72.30;;;39.20;;
31910;SDS011;18457;52.432;16.914;2022-10-22T15:09:59;75.60;;;40.30;;
31910;SDS011;18457;52.432;16.914;2022-10-22T15:12:31;71.90;;;39.00;;
31910;SDS011;18457;52.432;16.914;2022-10-22T15:15:04;72.00;;;37.40;;
31910;SDS011;18457;52.432;16.914;2022-10-22T15:17:37;70.20;;;37.00;;